Time;durP1;ratioP1;P1;durP2;ratioP2;P2;SDS_P1;SDS_P2;PMS_P1;PMS_P2;Temp;Humidity;BMP_temperature;BMP_pressure;BME280_temperature;BME280_humidity;BME280_pressure;Samples;Min_cycle;Max_cycle;Signal;HPM_P1;HPM_P2
2021/08/01 00:00:53;;;;;;;2.92;1.48;;;17.00;99.90;;;16.67;91.34;100983.91;4184758;28;20044;-75
2021/08/01 00:02:56;;;;;;;2.13;1.10;;;16.90;99.90;;;16.61;92.53;100994.53;4169268;28;20033;-75
2021/08/01 00:04:57;;;;;;;2.22;1.27;;;16.90;99.90;;;16.61;92.08;100975.88;4168138;28;20040;-75
2021/08/01 00:06:58;;;;;;;2.30;1.27;;;16.80;99.90;;;16.66;92.15;100986.78;4169192;28;20033;-75
2021/08/01 00:08:59;;;;;;;3.55;1.30;;;16.80;99.90;;;16.64;92.69;100986.94;4169282;28;20017;-75
2021/08/01 00:11:00;;;;;;;4.78;1.77;;;16.80;99.90;;;16.58;92.72;100975.22;4169166;28;20091;-75
2021/08/01 00:13:01;;;;;;;3.63;1.67;;;16.80;99.90;;;16.65;91.97;100987.78;4168054;28;20021;-75
2021/08/01 00:15:03;;;;;;;2.53;1.38;;;16.80;99.90;;;16.66;92.07;100989.44;4168007;28;20030;-75
2021/08/01 00:17:04;;;;;;;3.97;1.55;;;16.80;99.90;;;16.58;92.46;100985.88;4168009;28;20409;-75
2021/08/01 00:19:05;;;;;;;3.38;1.63;;;16.80;99.90;;;16.74;91.34;100976.81;4184246;28;20029;-75
2021/08/01 00:21:06;;;;;;;4.20;1.60;;;16.80;99.90;;;16.72;91.13;100988.69;4169258;28;20058;-75
2021/08/01 00:23:07;;;;;;;4.00;1.30;;;16.90;99.90;;;16.64;91.65;100988.78;4168818;28;20034;-75
2021/08/01 00:25:09;;;;;;;3.15;2.03;;;16.90;99.90;;;16.64;92.31;100984.28;4168972;28;20396;-75
2021/08/01 00:27:10;;;;;;;3.67;1.70;;;16.90;99.90;;;16.70;91.61;100985.38;4168896;28;20033;-75
2021/08/01 00:29:11;;;;;;;2.65;1.23;;;16.90;99.90;;;16.66;92.15;100981.44;4167843;28;20028;-75
2021/08/01 00:31:12;;;;;;;2.67;1.45;;;16.90;99.90;;;16.66;92.13;100989.44;4200914;28;20063;-75
2021/08/01 00:33:13;;;;;;;3.08;1.50;;;16.90;99.90;;;16.60;92.45;100988.38;4168963;28;20021;-75
2021/08/01 00:35:14;;;;;;;2.22;1.40;;;16.80;99.90;;;16.63;92.43;100980.00;4168905;28;20033;-75
2021/08/01 00:37:15;;;;;;;4.85;1.50;;;16.80;99.90;;;16.56;92.55;100979.94;4168835;28;20111;-75
2021/08/01 00:39:15;;;;;;;3.33;1.33;;;16.80;99.90;;;16.56;92.80;100987.91;4168846;28;20033;-75
2021/08/01 00:41:16;;;;;;;2.85;1.20;;;16.80;99.90;;;16.60;92.95;100980.38;4168885;28;20022;-75
2021/08/01 00:43:17;;;;;;;3.70;1.70;;;16.80;99.90;;;16.68;91.75;100988.22;4168913;28;20119;-75
2021/08/01 00:45:18;;;;;;;4.60;1.40;;;16.80;99.90;;;16.78;90.60;100982.59;4168540;28;20508;-75
2021/08/01 00:47:19;;;;;;;1.95;1.10;;;16.90;99.90;;;16.68;91.45;100992.72;4168784;28;20038;-75
2021/08/01 00:49:23;;;;;;;2.45;1.30;;;16.90;99.90;;;16.69;91.60;100984.56;4167495;28;20057;-75
2021/08/01 00:51:24;;;;;;;2.55;1.30;;;16.90;99.90;;;16.74;89.67;100991.97;4168500;28;20101;-75
2021/08/01 00:53:26;;;;;;;3.00;1.20;;;16.90;99.90;;;16.76;90.35;100981.94;4168876;28;20492;-74
2021/08/01 00:55:27;;;;;;;2.55;1.40;;;16.90;99.90;;;16.67;91.00;100985.75;4167758;28;20025;-75
2021/08/01 00:57:28;;;;;;;2.45;1.20;;;16.90;99.90;;;16.61;91.62;100983.88;4168729;28;20037;-75
2021/08/01 00:59:34;;;;;;;2.35;1.20;;;16.80;99.90;;;16.74;91.05;100986.66;4168806;28;20032;-75
2021/08/01 01:01:43;;;;;;;3.05;1.30;;;16.80;99.90;;;16.91;88.87;100986.19;4167592;28;20033;-75
2021/08/01 01:04:08;;;;;;;2.17;1.50;;;16.90;99.90;;;16.74;89.83;100991.97;4151212;28;20022;-75
2021/08/01 01:06:22;;;;;;;2.83;1.20;;;16.90;99.90;;;16.72;89.14;100984.19;4168043;28;20436;-75
2021/08/01 01:08:42;;;;;;;2.78;1.05;;;16.90;99.90;;;16.70;88.17;100974.72;4167730;28;20030;-75
2021/08/01 01:10:46;;;;;;;3.58;1.30;;;16.90;99.90;;;16.55;89.48;100985.41;4167514;28;20040;-75
2021/08/01 01:13:18;;;;;;;2.28;1.40;;;16.80;99.90;;;16.48;90.12;100977.34;4150886;28;20021;-75
2021/08/01 01:15:30;;;;;;;2.13;1.20;;;16.70;99.90;;;16.26;91.24;100982.81;4167489;28;20026;-75
2021/08/01 01:17:33;;;;;;;3.15;1.05;;;16.60;99.90;;;16.20;91.99;100987.06;4168463;28;20392;-74
2021/08/01 01:19:57;;;;;;;1.67;1.23;;;16.50;99.90;;;16.28;92.10;100988.75;4167491;28;20412;-74
2021/08/01 01:22:45;;;;;;;2.78;1.25;;;16.40;99.90;;;16.28;91.39;100992.25;4168318;28;20404;-75
2021/08/01 01:24:51;;;;;;;2.55;1.20;;;16.40;99.90;;;16.11;92.53;100982.84;4168443;28;20033;-75
2021/08/01 01:27:04;;;;;;;3.10;1.17;;;16.30;99.90;;;16.15;92.52;100989.47;4167439;28;20093;-75
2021/08/01 01:29:31;;;;;;;1.42;1.17;;;16.30;99.90;;;16.14;92.19;100993.13;4168367;28;20060;-75
2021/08/01 01:31:49;;;;;;;2.30;1.20;;;16.30;99.90;;;16.18;92.00;100997.06;4168419;28;20026;-75
2021/08/01 01:34:09;;;;;;;3.17;1.10;;;16.20;99.90;;;16.19;91.18;100988.06;4167056;28;20064;-75
2021/08/01 01:36:15;;;;;;;1.95;1.42;;;16.20;99.90;;;16.30;90.26;100984.94;4167306;28;20579;-75
2021/08/01 01:38:17;;;;;;;3.88;1.50;;;16.30;99.90;;;16.24;90.46;100980.34;4167967;28;20034;-75
2021/08/01 01:40:22;;;;;;;5.07;1.60;;;16.30;99.90;;;16.23;90.48;100983.19;4166932;28;20033;-75
2021/08/01 01:42:23;;;;;;;2.05;1.10;;;16.20;99.90;;;16.16;90.97;100983.09;4167214;28;20037;-74
2021/08/01 01:44:25;;;;;;;2.33;1.30;;;16.20;99.90;;;16.13;90.64;100983.47;4183471;28;20127;-75
2021/08/01 01:46:27;;;;;;;2.53;1.27;;;16.20;99.90;;;16.17;90.09;100974.13;4166849;28;20026;-75
2021/08/01 01:48:29;;;;;;;2.97;1.55;;;16.20;99.90;;;16.17;89.49;100979.44;4183283;28;20021;-75
2021/08/01 01:50:30;;;;;;;7.60;1.50;;;16.20;99.90;;;16.14;89.07;100982.47;4167076;28;20032;-75
2021/08/01 01:52:33;;;;;;;2.03;1.10;;;16.10;99.90;;;16.05;89.18;100983.59;4183227;28;20029;-75
2021/08/01 01:54:35;;;;;;;3.53;1.48;;;16.10;99.90;;;15.96;89.52;100982.03;4166961;28;20472;-75
2021/08/01 01:56:38;;;;;;;3.60;1.30;;;16.00;99.90;;;15.98;89.21;100983.50;4166790;28;20065;-75
2021/08/01 01:58:40;;;;;;;3.50;1.30;;;16.00;99.90;;;16.14;87.33;100985.13;4183434;28;20070;-75
2021/08/01 02:00:42;;;;;;;4.32;1.10;;;16.00;99.90;;;15.98;88.50;100975.50;4166826;28;20033;-75
2021/08/01 02:02:44;;;;;;;2.60;1.10;;;16.00;99.90;;;16.11;86.97;100987.34;4166961;28;20030;-75
2021/08/01 02:04:45;;;;;;;3.35;1.77;;;16.00;99.90;;;16.01;87.67;100988.44;4166906;28;20520;-75
2021/08/01 02:06:46;;;;;;;4.22;1.40;;;16.00;99.90;;;15.87;87.43;100983.13;4166486;28;20101;-75
2021/08/01 02:08:52;;;;;;;5.57;1.30;;;15.90;99.90;;;15.96;86.92;100974.88;4166975;28;20096;-75
2021/08/01 02:11:00;;;;;;;2.30;1.20;;;15.90;99.90;;;16.00;86.85;100962.03;4163713;28;20054;-75
2021/08/01 02:13:08;;;;;;;6.32;1.60;;;15.90;99.90;;;15.98;86.28;100970.19;4166871;28;20029;-75
2021/08/01 02:15:15;;;;;;;3.10;1.35;;;15.90;99.90;;;15.92;86.93;100962.13;4182872;28;20024;-75
2021/08/01 02:17:48;;;;;;;4.82;1.33;;;15.90;99.90;;;15.96;85.96;100966.06;4167535;28;20041;-75
2021/08/01 02:19:51;;;;;;;3.40;1.55;;;15.90;99.90;;;15.68;87.38;100965.09;4143260;28;20045;-75
2021/08/01 02:21:53;;;;;;;4.18;1.42;;;15.80;99.90;;;15.62;87.80;100965.81;4136895;28;20037;-75
2021/08/01 02:23:56;;;;;;;3.55;1.80;;;15.70;99.90;;;15.56;88.44;100966.56;4172162;28;20068;-75
2021/08/01 02:25:58;;;;;;;3.30;1.48;;;15.60;99.90;;;15.56;88.22;100954.06;4173985;28;20025;-75
2021/08/01 02:28:03;;;;;;;4.60;1.40;;;15.60;99.90;;;15.66;87.39;100970.59;4170832;28;20104;-75
2021/08/01 02:30:05;;;;;;;4.57;2.22;;;15.60;99.90;;;15.66;87.00;100965.25;4169640;28;20029;-75
2021/08/01 02:32:08;;;;;;;3.83;1.20;;;15.60;99.90;;;15.62;87.02;100974.59;4169350;28;20021;-75
2021/08/01 02:34:09;;;;;;;4.60;1.17;;;15.60;99.90;;;15.58;87.22;100972.50;4169538;28;20021;-75
2021/08/01 02:36:11;;;;;;;5.47;1.35;;;15.50;99.90;;;15.40;87.52;100949.75;4169522;28;20029;-75
2021/08/01 02:38:14;;;;;;;5.05;1.42;;;15.50;99.90;;;15.39;88.47;100969.34;4185583;28;20108;-75
2021/08/01 02:40:15;;;;;;;5.10;1.83;;;15.50;99.90;;;15.36;87.49;100959.06;4169243;28;20021;-75
2021/08/01 02:42:17;;;;;;;6.15;1.67;;;15.40;99.90;;;15.37;88.33;100960.72;4170696;28;20025;-75
2021/08/01 02:44:31;;;;;;;3.70;1.02;;;15.40;99.90;;;15.22;88.77;100962.53;4169344;28;20049;-75
2021/08/01 02:46:34;;;;;;;3.25;1.33;;;15.30;99.90;;;15.31;88.31;100961.47;4153639;28;20034;-76
2021/08/01 02:48:36;;;;;;;4.97;1.40;;;15.30;99.90;;;15.11;88.93;100964.81;4169451;28;20033;-75
2021/08/01 02:50:38;;;;;;;6.22;1.60;;;15.20;99.90;;;15.16;88.64;100965.09;4169086;28;20025;-75
2021/08/01 02:52:59;;;;;;;2.08;1.50;;;15.20;99.90;;;15.10;88.13;100958.66;4169065;28;20025;-75
2021/08/01 02:55:03;;;;;;;3.72;1.40;;;15.20;99.90;;;15.12;89.14;100964.63;4169458;28;20060;-75
2021/08/01 02:57:10;;;;;;;7.35;1.55;;;15.10;99.90;;;15.08;88.51;100965.16;4169336;28;20093;-75
2021/08/01 02:59:13;;;;;;;3.78;1.20;;;15.20;99.90;;;15.01;89.65;100964.22;4169135;28;20060;-75
2021/08/01 03:01:15;;;;;;;4.88;1.25;;;15.10;99.90;;;15.07;88.54;100959.03;4169264;28;20034;-75
2021/08/01 03:03:19;;;;;;;3.38;1.15;;;15.00;99.90;;;15.01;89.67;100958.91;4158309;28;20036;-75
2021/08/01 03:05:21;;;;;;;2.38;1.20;;;15.00;99.90;;;14.92;90.14;100960.81;4169392;28;20056;-75
2021/08/01 03:07:23;;;;;;;4.00;1.33;;;15.00;99.90;;;14.79;91.00;100965.88;4168786;28;20041;-75
2021/08/01 03:09:25;;;;;;;3.15;1.10;;;14.90;99.90;;;14.81;90.33;100953.28;4169075;28;20512;-75
2021/08/01 03:11:26;;;;;;;4.25;1.40;;;14.90;99.90;;;14.69;90.41;100952.03;4170370;28;20369;-75
2021/08/01 03:13:26;;;;;;;2.65;1.65;;;14.80;99.90;;;14.67;91.07;100956.69;4170283;28;20032;-75
2021/08/01 03:15:27;;;;;;;3.65;1.52;;;14.80;99.90;;;14.69;91.43;100965.31;4170175;28;20104;-75
2021/08/01 03:17:28;;;;;;;3.72;1.20;;;14.70;99.90;;;14.61;91.70;100957.38;4170077;28;20075;-75
2021/08/01 03:19:31;;;;;;;7.97;1.98;;;14.70;99.90;;;14.65;91.07;100956.88;4170357;28;20397;-75
2021/08/01 03:21:32;;;;;;;3.40;1.40;;;14.70;99.90;;;14.72;90.72;100954.34;4168816;28;20037;-75
2021/08/01 03:23:33;;;;;;;4.47;1.55;;;14.70;99.90;;;14.61;90.66;100952.06;4168969;28;20053;-76
2021/08/01 03:25:34;;;;;;;7.28;2.28;;;14.70;99.90;;;14.59;90.95;100951.44;4169747;28;20033;-75
2021/08/01 03:27:35;;;;;;;5.68;1.60;;;14.70;99.90;;;14.65;90.70;100956.03;4152654;28;20025;-76
2021/08/01 03:29:36;;;;;;;5.95;1.90;;;14.70;99.90;;;14.61;90.67;100957.38;4168348;28;20052;-75
2021/08/01 03:31:37;;;;;;;4.05;1.90;;;14.70;99.90;;;14.61;91.08;100960.03;4169888;28;20484;-75
2021/08/01 03:33:38;;;;;;;2.92;1.30;;;14.60;99.90;;;14.61;91.06;100957.38;4168546;28;20108;-75
2021/08/01 03:35:39;;;;;;;5.07;2.47;;;14.60;99.90;;;14.58;91.09;100957.75;4168887;28;20029;-75
2021/08/01 03:37:40;;;;;;;3.33;1.30;;;14.60;99.90;;;14.52;91.45;100953.97;4168510;28;20025;-75
2021/08/01 03:39:41;;;;;;;4.82;1.92;;;14.60;99.90;;;14.43;91.29;100944.41;4162477;28;20084;-75
2021/08/01 03:41:42;;;;;;;4.60;1.30;;;14.60;99.90;;;14.65;90.11;100964.00;4169956;28;20025;-75
2021/08/01 03:43:43;;;;;;;5.50;1.60;;;14.60;99.90;;;14.46;90.86;100954.66;4168403;28;20060;-75
2021/08/01 03:45:44;;;;;;;4.88;1.50;;;14.60;99.90;;;14.34;91.35;100954.25;4185141;28;20029;-75
2021/08/01 03:47:45;;;;;;;3.20;1.40;;;14.50;99.90;;;14.37;91.78;100961.84;4184741;28;20054;-75
2021/08/01 03:49:48;;;;;;;2.75;1.10;;;14.50;99.90;;;14.37;92.16;100964.50;4168509;28;20022;-76
2021/08/01 03:51:49;;;;;;;3.85;1.80;;;14.40;99.90;;;14.31;92.13;100956.38;4167942;28;20105;-75
2021/08/01 03:53:50;;;;;;;5.40;1.73;;;14.50;99.90;;;14.33;92.13;100960.56;4168495;28;20021;-75
2021/08/01 03:55:50;;;;;;;4.50;1.33;;;14.40;99.90;;;14.28;92.27;100960.22;4161663;28;20026;-75
2021/08/01 03:57:51;;;;;;;3.63;1.38;;;14.40;99.90;;;14.23;92.07;100959.94;4168336;28;20034;-75
2021/08/01 03:59:52;;;;;;;5.53;2.13;;;14.40;99.90;;;14.24;92.37;100956.28;4168994;28;20040;-75
2021/08/01 04:01:53;;;;;;;3.03;1.45;;;14.30;99.90;;;14.16;93.01;100958.13;4168142;28;20033;-75
2021/08/01 04:03:54;;;;;;;5.05;1.88;;;14.30;99.90;;;14.13;92.85;100959.31;4168286;28;20061;-75
2021/08/01 04:05:55;;;;;;;5.85;2.08;;;14.30;99.90;;;14.16;92.90;100966.91;4184667;28;20031;-75
2021/08/01 04:07:56;;;;;;;6.07;1.70;;;14.30;99.90;;;14.09;93.34;100957.19;4167835;28;20025;-75
2021/08/01 04:09:57;;;;;;;4.57;1.67;;;14.20;99.90;;;14.09;93.40;100959.84;4184932;28;20376;-75
2021/08/01 04:11:59;;;;;;;3.67;1.52;;;14.20;99.90;;;14.15;93.07;100956.50;4168167;28;20567;-75
2021/08/01 04:14:00;;;;;;;5.88;1.42;;;14.20;99.90;;;14.14;92.91;100955.66;4184648;28;20396;-75
2021/08/01 04:16:01;;;;;;;6.30;1.73;;;14.20;99.90;;;14.12;93.29;100957.69;4169078;28;20520;-75
2021/08/01 04:18:03;;;;;;;5.03;1.67;;;14.20;99.90;;;14.14;93.24;100958.31;4168103;28;20049;-75
2021/08/01 04:20:04;;;;;;;3.78;1.92;;;14.20;99.90;;;14.17;93.46;100959.78;4184501;28;20642;-75
2021/08/01 04:22:05;;;;;;;4.30;2.17;;;14.20;99.90;;;14.10;93.77;100954.34;4151381;28;20026;-75
2021/08/01 04:24:07;;;;;;;5.40;1.50;;;14.20;99.90;;;14.12;93.62;100954.19;4167812;28;20460;-75
2021/08/01 04:26:09;;;;;;;3.88;1.52;;;14.20;99.90;;;14.11;93.39;100945.41;4168007;28;20037;-75
2021/08/01 04:28:10;;;;;;;4.18;1.80;;;14.20;99.90;;;14.12;92.97;100939.09;4167840;28;20420;-75
2021/08/01 04:30:11;;;;;;;7.38;1.70;;;14.20;99.90;;;14.02;93.20;100951.75;4164946;28;20026;-75
2021/08/01 04:32:12;;;;;;;4.93;1.90;;;14.20;99.90;;;13.95;93.69;100947.31;4168760;28;20040;-75
2021/08/01 04:34:16;;;;;;;4.88;1.98;;;14.10;99.90;;;13.75;94.34;100950.38;4167662;28;20033;-75
2021/08/01 04:36:17;;;;;;;3.70;1.83;;;14.00;99.90;;;13.82;94.16;100953.16;4183763;28;20106;-75
2021/08/01 04:38:18;;;;;;;2.97;1.42;;;14.00;99.90;;;13.67;94.28;100945.09;4167603;28;20468;-75
2021/08/01 04:40:20;;;;;;;4.40;1.67;;;14.00;99.90;;;13.64;94.97;100949.91;4167459;28;20052;-75
2021/08/01 04:42:21;;;;;;;5.75;1.58;;;13.90;99.90;;;13.70;95.14;100951.88;4184147;28;20025;-75
2021/08/01 04:44:22;;;;;;;4.95;2.17;;;13.90;99.90;;;13.67;95.63;100945.09;4168661;28;20052;-75
2021/08/01 04:46:22;;;;;;;3.75;1.92;;;13.90;99.90;;;13.62;95.27;100942.13;4167501;28;20528;-74
2021/08/01 04:48:23;;;;;;;3.10;1.88;;;13.90;99.90;;;13.55;95.85;100946.47;4168591;28;20051;-75
2021/08/01 04:50:24;;;;;;;4.70;1.75;;;13.80;99.90;;;13.59;96.17;100957.56;4167624;28;20021;-75
2021/08/01 04:52:25;;;;;;;4.75;1.60;;;13.80;99.90;;;13.61;96.06;100964.34;4183795;28;20087;-75
2021/08/01 04:54:26;;;;;;;4.75;1.90;;;13.80;99.90;;;13.53;96.50;100956.38;4168608;28;20097;-75
2021/08/01 04:56:27;;;;;;;7.25;2.17;;;13.80;99.90;;;13.51;96.28;100952.25;4167186;28;20508;-75
2021/08/01 04:58:28;;;;;;;5.25;2.08;;;13.80;99.90;;;13.48;96.82;100952.59;4168678;28;20489;-75
2021/08/01 05:00:29;;;;;;;9.57;2.08;;;13.80;99.90;;;13.53;97.34;100963.53;4167252;28;20040;-75
2021/08/01 05:02:29;;;;;;;3.92;1.85;;;13.70;99.90;;;13.49;96.78;100955.09;4163116;28;20037;-76
2021/08/01 05:04:30;;;;;;;4.15;1.65;;;13.80;99.90;;;13.42;97.50;100953.28;4167225;28;20025;-75
2021/08/01 05:06:31;;;;;;;7.20;2.08;;;13.70;99.90;;;13.47;97.74;100951.75;4150691;28;20026;-75
2021/08/01 05:08:32;;;;;;;6.63;1.75;;;13.80;99.90;;;13.46;97.38;100951.94;4167258;28;20473;-75
2021/08/01 05:10:34;;;;;;;3.58;2.08;;;13.80;99.90;;;13.49;97.87;100955.09;4184078;28;20656;-75
2021/08/01 05:12:34;;;;;;;3.28;1.73;;;13.80;99.90;;;13.52;97.44;100957.41;4167239;28;20025;-75
2021/08/01 05:14:35;;;;;;;5.28;2.15;;;13.80;99.90;;;13.55;97.55;100951.75;4167348;28;20017;-75
2021/08/01 05:16:36;;;;;;;6.53;2.40;;;13.80;99.90;;;13.52;97.24;100952.09;4166917;28;20025;-75
2021/08/01 05:18:37;;;;;;;5.55;2.10;;;13.80;99.90;;;13.43;97.30;100945.16;4168112;28;20396;-75
2021/08/01 05:20:44;;;;;;;5.88;1.80;;;13.80;99.90;;;13.42;97.99;100953.28;4150416;28;20033;-75
2021/08/01 05:22:45;;;;;;;3.83;2.05;;;13.70;99.90;;;13.42;97.88;100956.75;4166820;28;20027;-75
2021/08/01 05:24:46;;;;;;;5.57;2.30;;;13.70;99.90;;;13.46;98.16;100960.72;4167936;28;20021;-75
2021/08/01 05:26:47;;;;;;;2.78;2.00;;;13.70;99.90;;;13.44;97.97;100952.09;4166695;28;20022;-75
2021/08/01 05:28:48;;;;;;;5.18;1.92;;;13.80;99.90;;;13.44;97.37;100951.31;4166489;28;20060;-75
2021/08/01 05:30:49;;;;;;;5.40;1.90;;;13.70;99.90;;;13.45;97.38;100955.59;4168024;28;20032;-75
2021/08/01 05:32:50;;;;;;;6.93;2.45;;;13.70;99.90;;;13.41;97.53;100952.44;4167051;28;20021;-76
2021/08/01 05:34:51;;;;;;;6.50;2.50;;;13.70;99.90;;;13.40;97.79;100957.94;4167011;28;20018;-75
2021/08/01 05:36:52;;;;;;;7.30;2.20;;;13.70;99.90;;;13.42;98.49;100953.28;4150309;28;20124;-75
2021/08/01 05:38:53;;;;;;;6.75;2.28;;;13.80;99.90;;;13.38;98.40;100951.97;4170944;28;20514;-75
2021/08/01 05:40:53;;;;;;;4.93;1.80;;;13.80;99.90;;;13.40;98.98;100950.81;4168150;28;20045;-75
2021/08/01 05:42:55;;;;;;;5.45;2.20;;;13.80;99.90;;;13.40;99.40;100958.75;4166578;28;20079;-75
2021/08/01 05:44:56;;;;;;;3.08;1.40;;;13.80;99.90;;;13.48;99.57;100961.38;4167605;28;20042;-75
2021/08/01 05:46:57;;;;;;;5.13;2.10;;;13.80;99.90;;;13.60;99.41;100967.97;4165107;28;20028;-75
2021/08/01 05:48:58;;;;;;;5.40;2.22;;;13.80;99.90;;;13.73;99.24;100960.31;4166526;28;20183;-75
2021/08/01 05:50:59;;;;;;;5.20;2.10;;;13.90;99.90;;;13.76;99.40;100961.81;4166650;28;20026;-76
2021/08/01 05:53:02;;;;;;;5.15;2.00;;;14.00;99.90;;;13.81;99.29;100965.59;4168214;28;20032;-75
2021/08/01 05:55:04;;;;;;;5.40;2.33;;;14.10;99.90;;;13.98;99.08;100970.84;4169920;28;20718;-76
2021/08/01 05:57:05;;;;;;;2.78;1.50;;;14.10;99.90;;;14.08;99.18;100966.97;4169619;28;20268;-76
2021/08/01 05:59:06;;;;;;;4.22;2.17;;;14.30;99.90;;;14.10;98.64;100962.31;4169727;28;20040;-75
2021/08/01 06:01:13;;;;;;;3.50;1.60;;;14.30;99.90;;;14.16;99.35;100969.56;4184339;28;20021;-76
2021/08/01 06:03:13;;;;;;;5.00;1.88;;;14.40;99.90;;;14.26;98.50;100975.50;4169679;28;20260;-76
2021/08/01 06:05:14;;;;;;;5.22;2.10;;;14.50;99.90;;;14.27;98.98;100968.38;4170063;28;20026;-76
2021/08/01 06:07:15;;;;;;;5.22;2.20;;;14.60;99.90;;;14.36;98.37;100970.84;4169800;28;20034;-75
2021/08/01 06:09:16;;;;;;;8.02;2.75;;;14.60;99.90;;;14.44;98.25;100967.31;4153405;28;20022;-75
2021/08/01 06:11:18;;;;;;;3.00;1.42;;;14.70;99.90;;;14.44;98.40;100971.78;4157053;28;20064;-75
2021/08/01 06:13:19;;;;;;;3.83;1.77;;;14.70;99.90;;;14.64;98.05;100979.09;4186452;28;20037;-75
2021/08/01 06:15:20;;;;;;;3.47;2.05;;;14.80;99.90;;;14.67;97.71;100978.75;4169928;28;20382;-75
2021/08/01 06:17:21;;;;;;;6.15;1.70;;;14.90;99.90;;;14.75;97.96;100986.69;4186629;28;20061;-75
2021/08/01 06:19:22;;;;;;;2.40;1.42;;;15.00;99.90;;;14.78;97.67;100978.34;4169997;28;20033;-75
2021/08/01 06:21:23;;;;;;;5.05;2.28;;;15.10;99.90;;;14.87;97.51;100979.13;4169605;28;20520;-75
2021/08/01 06:23:24;;;;;;;4.93;3.20;;;15.20;99.90;;;15.00;97.64;100981.16;4170992;28;20025;-75
2021/08/01 06:25:24;;;;;;;5.03;1.80;;;15.30;99.90;;;15.09;97.13;100978.25;4150025;28;20045;-76
2021/08/01 06:27:25;;;;;;;4.53;2.40;;;15.50;99.90;;;15.34;95.92;100981.53;4183798;28;20209;-75
2021/08/01 06:29:26;;;;;;;3.17;1.90;;;15.70;99.90;;;15.57;95.96;100989.47;4167318;28;20033;-76
2021/08/01 06:31:27;;;;;;;5.68;2.10;;;15.90;99.90;;;15.84;93.51;100989.66;4178255;28;20025;-76
2021/08/01 06:33:29;;;;;;;2.50;1.70;;;16.10;99.90;;;15.89;93.54;100965.16;4170711;28;20037;-75
2021/08/01 06:35:30;;;;;;;5.20;2.17;;;16.40;99.90;;;16.16;93.28;100984.97;4169401;28;20052;-75
2021/08/01 06:37:31;;;;;;;2.63;1.50;;;16.60;99.90;;;16.31;92.50;100991.06;4169309;28;20041;-75
2021/08/01 06:39:32;;;;;;;3.80;1.92;;;16.90;99.90;;;16.56;92.28;100995.06;4169260;28;20030;-75
2021/08/01 06:41:33;;;;;;;4.50;2.28;;;17.10;99.90;;;16.67;89.72;100983.09;4170908;28;20547;-75
2021/08/01 06:43:34;;;;;;;2.97;1.63;;;17.40;99.90;;;16.68;89.48;100987.41;4170176;28;20029;-75
2021/08/01 06:45:35;;;;;;;2.50;1.30;;;17.70;99.90;;;16.82;89.88;101007.81;4169500;28;20032;-75
2021/08/01 06:47:35;;;;;;;3.40;1.83;;;17.80;99.90;;;16.87;90.09;100984.94;4185909;28;20025;-75
2021/08/01 06:49:37;;;;;;;2.85;1.45;;;17.90;99.90;;;17.06;88.61;100988.78;4169341;28;20108;-75
2021/08/01 06:51:38;;;;;;;3.58;1.40;;;18.00;99.90;;;17.19;88.11;100996.06;4169046;28;20100;-75
2021/08/01 06:53:39;;;;;;;3.67;1.70;;;18.10;99.90;;;17.24;87.65;101007.81;4170648;28;20048;-76
2021/08/01 06:55:40;;;;;;;3.88;2.20;;;18.10;99.90;;;17.28;86.99;101008.25;4170548;28;20021;-76
2021/08/01 06:57:41;;;;;;;3.85;1.67;;;18.10;99.90;;;17.36;85.95;101014.25;4168534;28;20060;-76
2021/08/01 06:59:42;;;;;;;4.18;1.70;;;18.20;99.90;;;17.32;85.91;101001.53;4170839;28;20682;-76
2021/08/01 07:01:43;;;;;;;3.50;1.95;;;18.20;99.90;;;17.40;85.09;101001.38;4168399;28;20029;-76
2021/08/01 07:03:44;;;;;;;2.45;1.95;;;18.20;99.90;;;17.35;85.39;100996.59;4184378;28;20112;-76
2021/08/01 07:05:45;;;;;;;5.15;2.10;;;18.20;99.90;;;17.47;84.11;101016.41;4174252;28;20020;-76
2021/08/01 07:07:46;;;;;;;3.72;1.65;;;18.20;99.90;;;17.51;84.36;101008.84;4170577;28;20025;-76
2021/08/01 07:09:47;;;;;;;3.60;1.70;;;18.20;99.90;;;17.51;85.41;101015.00;4185562;28;20158;-76
2021/08/01 07:11:48;;;;;;;2.72;1.70;;;18.20;99.90;;;17.58;84.13;101015.91;4168861;28;20021;-76
2021/08/01 07:13:49;;;;;;;4.10;1.63;;;18.20;99.90;;;17.58;83.84;101018.56;4170228;28;20030;-76
2021/08/01 07:15:51;;;;;;;4.30;1.58;;;18.30;99.90;;;17.47;84.46;101026.25;4168791;28;20025;-76
2021/08/01 07:18:00;;;;;;;2.75;1.90;;;18.20;99.90;;;17.42;84.65;101031.34;4172971;28;20029;-76
2021/08/01 07:20:02;;;;;;;2.42;1.70;;;18.10;99.90;;;17.47;84.13;101024.41;4168957;28;20052;-76
2021/08/01 07:22:03;;;;;;;3.67;1.52;;;18.10;99.90;;;17.30;83.59;101020.38;4169415;28;20053;-77
2021/08/01 07:24:05;;;;;;;3.17;1.67;;;18.20;99.90;;;17.17;84.35;101024.78;4152100;28;20032;-76
2021/08/01 07:26:06;;;;;;;3.58;2.05;;;18.10;99.90;;;17.23;84.21;101022.19;4190620;28;20100;-76
2021/08/01 07:28:06;;;;;;;4.68;1.52;;;18.00;99.90;;;17.21;85.00;101018.03;4169998;28;20025;-76
2021/08/01 07:30:08;;;;;;;4.05;1.95;;;18.00;99.90;;;17.26;84.89;101028.97;4168736;28;20370;-76
2021/08/01 07:32:09;;;;;;;5.00;2.00;;;18.00;99.90;;;17.16;84.74;101026.63;4184851;28;20029;-76
2021/08/01 07:34:10;;;;;;;4.50;1.63;;;17.90;99.90;;;17.12;85.86;101023.50;4168813;28;20080;-76
2021/08/01 07:36:11;;;;;;;2.47;1.90;;;17.80;99.90;;;17.17;86.03;101022.94;4184886;28;20374;-76
2021/08/01 07:38:12;;;;;;;5.95;2.00;;;17.70;99.90;;;17.32;85.50;101023.69;4168744;28;20096;-76
2021/08/01 07:40:13;;;;;;;3.85;1.95;;;17.80;99.90;;;17.40;85.34;101023.53;4167825;28;20025;-76
2021/08/01 07:42:14;;;;;;;5.38;2.72;;;17.90;99.90;;;17.35;87.48;101028.59;4152123;28;20478;-76
2021/08/01 07:44:15;;;;;;;3.65;1.70;;;17.90;99.90;;;17.30;86.20;101024.88;4169306;28;20053;-76
2021/08/01 07:46:16;;;;;;;3.63;2.00;;;17.90;99.90;;;17.24;86.34;101026.47;4168230;28;20028;-76
2021/08/01 07:48:16;;;;;;;6.07;2.17;;;17.80;99.90;;;17.24;85.79;101039.81;4168256;28;20025;-76
2021/08/01 07:50:18;;;;;;;4.00;2.05;;;17.80;99.90;;;17.50;85.16;101026.69;4168357;28;20017;-76
2021/08/01 07:52:20;;;;;;;2.75;1.55;;;18.00;99.90;;;17.79;84.15;101039.03;4160311;28;20036;-76
2021/08/01 07:54:21;;;;;;;5.07;2.05;;;18.30;99.90;;;17.71;84.28;101028.53;4168292;28;20509;-76
2021/08/01 07:56:22;;;;;;;4.05;1.80;;;18.50;99.90;;;17.80;83.19;101043.31;4168270;28;20048;-76
2021/08/01 07:58:23;;;;;;;3.33;1.70;;;18.60;99.90;;;17.99;82.55;101033.81;4184764;28;20070;-75
2021/08/01 08:00:24;;;;;;;3.08;1.83;;;18.80;99.90;;;18.01;81.98;101034.44;4168111;28;20540;-76
2021/08/01 08:02:26;;;;;;;4.50;2.17;;;18.90;99.90;;;18.17;81.01;101045.63;4169194;28;20032;-75
2021/08/01 08:04:27;;;;;;;5.38;2.05;;;19.10;99.90;;;18.25;79.85;101041.94;4168117;28;20511;-76
2021/08/01 08:06:28;;;;;;;4.47;1.70;;;19.20;99.90;;;18.27;80.26;101045.25;4184582;28;20029;-76
2021/08/01 08:08:31;;;;;;;5.20;1.60;;;19.20;99.90;;;18.40;79.61;101045.28;4169207;28;20034;-75
2021/08/01 08:10:32;;;;;;;4.07;1.80;;;19.20;99.90;;;18.23;79.67;101035.97;4168085;28;20468;-75
2021/08/01 08:12:33;;;;;;;2.80;1.92;;;19.30;99.90;;;18.51;78.80;101043.94;4169043;28;20260;-75
2021/08/01 08:14:34;;;;;;;2.65;2.08;;;19.30;99.90;;;18.42;77.97;101048.59;4167238;28;20619;-75
2021/08/01 08:16:35;;;;;;;3.80;1.70;;;19.50;99.90;;;18.64;77.88;101047.47;4184014;28;20135;-74
2021/08/01 08:18:36;;;;;;;3.65;1.90;;;19.50;99.90;;;18.71;77.13;101048.31;4151282;28;20025;-74
2021/08/01 08:20:37;;;;;;;3.75;1.40;;;19.70;99.90;;;18.79;76.45;101034.75;4174429;28;20045;-74
2021/08/01 08:22:38;;;;;;;3.40;2.10;;;19.80;99.90;;;18.71;75.65;101032.28;4167398;28;20109;-74
2021/08/01 08:24:39;;;;;;;2.45;1.35;;;19.90;99.90;;;18.81;75.03;101047.94;4143734;28;20449;-75
2021/08/01 08:26:40;;;;;;;3.53;1.63;;;19.80;99.90;;;18.87;75.37;101047.13;4177378;28;20591;-75
2021/08/01 08:28:41;;;;;;;3.33;1.85;;;19.80;99.90;;;18.96;75.92;101048.59;4167757;28;20014;-75
2021/08/01 08:30:43;;;;;;;4.15;1.77;;;19.90;99.90;;;19.13;73.78;101041.81;4167635;28;20033;-75